createdAt,value
2018-03-22T00:00:03.312Z,37.9
2018-03-22T00:00:53.369Z,37.9
2018-03-22T00:01:42.836Z,37.9
2018-03-22T00:02:34.079Z,37.9
2018-03-22T00:03:23.694Z,37.9
2018-03-22T00:04:12.461Z,37.9
2018-03-22T00:05:03.096Z,37.9
2018-03-22T00:05:53.246Z,37.9
2018-03-22T00:06:43.689Z,37.9
2018-03-22T00:07:33.042Z,37.9
2018-03-22T00:08:23.499Z,37.8
2018-03-22T00:09:13.981Z,37.9
2018-03-22T00:10:02.431Z,37.9
2018-03-22T00:10:53.636Z,37.8
2018-03-22T00:11:44.214Z,37.8
2018-03-22T00:12:33.513Z,37.8
2018-03-22T00:13:24.005Z,37.8
2018-03-22T00:14:13.300Z,37.8
2018-03-22T00:15:03.288Z,37.8
2018-03-22T00:15:53.126Z,37.8
2018-03-22T00:16:44.078Z,37.8
2018-03-22T00:17:33.847Z,37.8
2018-03-22T00:18:24.420Z,37.7
2018-03-22T00:19:14.418Z,37.7
2018-03-22T00:20:04.779Z,37.7
2018-03-22T00:20:54.798Z,37.7
2018-03-22T00:21:44.521Z,37.7
2018-03-22T00:22:34.672Z,37.7
2018-03-22T00:23:25.030Z,37.7
2018-03-22T00:24:15.019Z,37.6
2018-03-22T00:25:05.350Z,37.6
2018-03-22T00:25:54.608Z,37.6
2018-03-22T00:26:45.283Z,37.6
2018-03-22T00:27:35.500Z,37.6
2018-03-22T00:28:25.865Z,37.6
2018-03-22T00:29:15.362Z,37.6
2018-03-22T00:30:04.922Z,37.6
2018-03-22T00:30:54.285Z,37.6
2018-03-22T00:31:45.339Z,37.6
2018-03-22T00:32:35.447Z,37.6
2018-03-22T00:33:25.655Z,37.6
2018-03-22T00:34:15.584Z,37.6
2018-03-22T00:35:04.676Z,37.6
2018-03-22T00:35:55.237Z,37.5
2018-03-22T00:36:45.469Z,37.5
2018-03-22T00:37:35.139Z,37.5
2018-03-22T00:38:25.726Z,37.5
2018-03-22T00:39:16.399Z,37.5
2018-03-22T00:40:05.848Z,37.5
2018-03-22T00:40:56.171Z,37.4
2018-03-22T00:41:46.124Z,37.4
2018-03-22T00:42:36.626Z,37.4
2018-03-22T00:43:26.056Z,37.4
2018-03-22T00:44:15.486Z,37.4
2018-03-22T00:45:06.371Z,37.4
2018-03-22T00:45:55.831Z,37.4
2018-03-22T00:46:46.464Z,37.4
2018-03-22T00:47:36.231Z,37.4
2018-03-22T00:48:25.714Z,37.4
2018-03-22T00:49:16.828Z,37.4
2018-03-22T00:50:06.388Z,37.4
2018-03-22T00:50:56.558Z,37.4
2018-03-22T00:51:46.686Z,37.4
2018-03-22T00:52:36.815Z,37.3
2018-03-22T00:53:26.947Z,37.3
2018-03-22T00:54:16.394Z,37.3
2018-03-22T00:55:05.968Z,37.3
2018-03-22T00:55:56.784Z,37.3
2018-03-22T00:56:47.062Z,37.3
2018-03-22T00:57:37.505Z,37.3
2018-03-22T00:58:26.508Z,37.3
2018-03-22T00:59:16.852Z,37.3
2018-03-22T01:00:07.753Z,37.3
2018-03-22T01:00:58.157Z,37.3
2018-03-22T01:01:47.395Z,37.2
2018-03-22T01:02:37.481Z,37.3
2018-03-22T01:03:27.441Z,37.2
2018-03-22T01:04:17.810Z,37.2
2018-03-22T01:05:07.368Z,37.2
2018-03-22T01:05:57.403Z,37.2
2018-03-22T01:06:47.957Z,37.2
2018-03-22T01:07:37.701Z,37.2
2018-03-22T01:08:27.282Z,37.1
2018-03-22T01:09:18.438Z,37.1
2018-03-22T01:10:07.480Z,37.1
2018-03-22T01:10:58.535Z,37.1
2018-03-22T01:11:48.410Z,37.1
2018-03-22T01:12:38.519Z,37.1
2018-03-22T01:13:28.334Z,37.1
2018-03-22T01:14:18.190Z,37.1
2018-03-22T01:15:08.535Z,37.1
2018-03-22T01:15:58.885Z,37.1
2018-03-22T01:16:48.451Z,37.1
2018-03-22T01:17:39.055Z,37.1
2018-03-22T01:18:27.814Z,37.1
2018-03-22T01:19:18.954Z,37.1
2018-03-22T01:20:08.330Z,37.1
2018-03-22T01:20:58.077Z,37.1
2018-03-22T01:21:48.512Z,37
2018-03-22T01:22:38.925Z,37
2018-03-22T01:23:28.164Z,37
2018-03-22T01:24:18.610Z,37
2018-03-22T01:25:08.644Z,37
2018-03-22T01:25:59.092Z,36.9
2018-03-22T01:26:49.749Z,36.9
2018-03-22T01:27:39.204Z,37
2018-03-22T01:28:29.048Z,36.9
2018-03-22T01:29:18.050Z,36.9
2018-03-22T01:30:08.904Z,36.9
2018-03-22T01:30:58.864Z,36.9
2018-03-22T01:31:49.117Z,36.9
2018-03-22T01:32:39.784Z,36.9
2018-03-22T01:33:29.573Z,36.9
2018-03-22T01:34:19.488Z,36.9
2018-03-22T01:35:10.159Z,36.9
2018-03-22T01:35:59.741Z,36.9
2018-03-22T01:36:50.364Z,36.8
2018-03-22T01:37:40.537Z,36.9
2018-03-22T01:38:29.105Z,36.8
2018-03-22T01:39:19.929Z,36.9
2018-03-22T01:40:10.009Z,36.8
2018-03-22T01:41:00.447Z,36.8
2018-03-22T01:41:49.826Z,36.8
2018-03-22T01:42:40.012Z,36.8
2018-03-22T01:43:30.419Z,36.8
2018-03-22T01:44:19.899Z,36.8
2018-03-22T01:45:10.016Z,36.8
2018-03-22T01:46:00.513Z,36.8
2018-03-22T01:46:50.467Z,36.8
2018-03-22T01:47:40.841Z,36.8
2018-03-22T01:48:31.174Z,36.8
2018-03-22T01:49:20.720Z,36.8
2018-03-22T01:50:11.267Z,36.8
2018-03-22T01:51:00.356Z,36.7
2018-03-22T01:51:51.105Z,36.7
2018-03-22T01:52:40.472Z,36.8
2018-03-22T01:53:31.035Z,36.7
2018-03-22T01:54:21.093Z,36.7
2018-03-22T01:55:10.854Z,36.7
2018-03-22T01:56:00.923Z,36.7
2018-03-22T01:56:50.870Z,36.7
2018-03-22T01:57:41.530Z,36.7
2018-03-22T01:58:32.450Z,36.6
2018-03-22T01:59:20.963Z,36.6
2018-03-22T02:00:11.225Z,36.7
2018-03-22T02:01:01.544Z,36.9
2018-03-22T02:01:52.010Z,37.1
2018-03-22T02:02:42.461Z,37.3
2018-03-22T02:03:32.112Z,37.5
2018-03-22T02:04:21.374Z,37.7
2018-03-22T02:05:11.541Z,37.9
2018-03-22T02:06:01.421Z,38.1
2018-03-22T02:06:52.434Z,38.2
2018-03-22T02:07:41.639Z,38.4
2018-03-22T02:08:31.465Z,38.5
2018-03-22T02:09:22.034Z,38.6
2018-03-22T02:10:11.929Z,38.7
2018-03-22T02:11:02.333Z,38.8
2018-03-22T02:11:53.070Z,38.9
2018-03-22T02:12:42.049Z,39.1
2018-03-22T02:13:31.951Z,39.2
2018-03-22T02:14:22.077Z,39.3
2018-03-22T02:15:12.726Z,39.4
2018-03-22T02:16:02.306Z,39.5
2018-03-22T02:16:52.267Z,39.6
2018-03-22T02:17:42.430Z,39.6
2018-03-22T02:18:32.982Z,39.8
2018-03-22T02:19:23.045Z,39.9
2018-03-22T02:20:13.179Z,40
2018-03-22T02:21:02.338Z,40.1
2018-03-22T02:21:52.785Z,40.2
2018-03-22T02:22:43.322Z,40.3
2018-03-22T02:23:33.016Z,40.4
2018-03-22T02:24:23.966Z,40.6
2018-03-22T02:25:12.750Z,40.6
2018-03-22T02:26:03.228Z,40.8
2018-03-22T02:26:53.656Z,40.9
2018-03-22T02:27:43.641Z,40.9
2018-03-22T02:28:33.686Z,41
2018-03-22T02:29:23.485Z,41.1
2018-03-22T02:30:14.371Z,41.3
2018-03-22T02:31:03.658Z,41.4
2018-03-22T02:31:53.417Z,41.5
2018-03-22T02:32:43.483Z,41.6
2018-03-22T02:33:34.046Z,41.7
2018-03-22T02:34:23.799Z,41.8
2018-03-22T02:35:13.560Z,41.9
2018-03-22T02:36:03.137Z,42.1
2018-03-22T02:36:53.975Z,42.2
2018-03-22T02:37:44.703Z,42.3
2018-03-22T02:38:33.683Z,42.4
2018-03-22T02:39:23.965Z,42.6
2018-03-22T02:40:14.709Z,42.7
2018-03-22T02:41:04.612Z,42.8
2018-03-22T02:41:54.413Z,42.9
2018-03-22T02:42:43.602Z,42.9
2018-03-22T02:43:33.956Z,43.1
2018-03-22T02:44:25.175Z,43.2
2018-03-22T02:45:14.473Z,43.4
2018-03-22T02:46:04.880Z,43.5
2018-03-22T02:46:54.770Z,43.6
2018-03-22T02:47:44.772Z,43.7
2018-03-22T02:48:35.053Z,43.8
2018-03-22T02:49:25.184Z,43.9
2018-03-22T02:50:15.480Z,44
2018-03-22T02:51:04.944Z,44.1
2018-03-22T02:51:54.514Z,44.3
2018-03-22T02:52:45.753Z,44.3
2018-03-22T02:53:34.931Z,44.4
2018-03-22T02:54:24.800Z,44.6
2018-03-22T02:55:15.564Z,44.6
2018-03-22T02:56:05.035Z,44.8
2018-03-22T02:56:55.189Z,44.8
2018-03-22T02:57:44.825Z,44.9
2018-03-22T02:58:35.483Z,45.1
2018-03-22T02:59:25.873Z,45.3
2018-03-22T03:00:16.320Z,45.4
2018-03-22T03:01:05.472Z,45.4
2018-03-22T03:01:56.098Z,45.6
2018-03-22T03:02:45.791Z,45.7
2018-03-22T03:03:35.549Z,45.8
2018-03-22T03:04:25.411Z,45.9
2018-03-22T03:05:15.743Z,45.9
2018-03-22T03:06:05.993Z,46
2018-03-22T03:06:55.982Z,46
2018-03-22T03:07:46.688Z,46.1
2018-03-22T03:08:36.850Z,46.1
2018-03-22T03:09:25.738Z,46.1
2018-03-22T03:10:15.303Z,46.2
2018-03-22T03:11:06.457Z,46.2
2018-03-22T03:11:55.611Z,46.3
2018-03-22T03:12:46.339Z,46.3
2018-03-22T03:13:36.696Z,46.3
2018-03-22T03:14:26.639Z,46.3
2018-03-22T03:15:16.549Z,46.3
2018-03-22T03:16:07.068Z,46.4
2018-03-22T03:16:56.471Z,46.4
2018-03-22T03:17:46.290Z,46.4
2018-03-22T03:18:36.670Z,46.4
2018-03-22T03:19:27.273Z,46.4
2018-03-22T03:20:16.496Z,46.5
2018-03-22T03:21:07.125Z,46.6
2018-03-22T03:21:57.948Z,46.6
2018-03-22T03:22:47.168Z,46.6
2018-03-22T03:23:38.095Z,46.6
2018-03-22T03:24:26.876Z,46.6
2018-03-22T03:25:16.929Z,46.7
2018-03-22T03:26:07.683Z,46.8
2018-03-22T03:26:56.940Z,46.8
2018-03-22T03:27:47.394Z,46.8
2018-03-22T03:28:37.677Z,46.8
2018-03-22T03:29:28.225Z,46.8
2018-03-22T03:30:17.611Z,46.8
2018-03-22T03:31:07.657Z,46.8
2018-03-22T03:31:57.853Z,46.8
2018-03-22T03:32:47.665Z,46.8
2018-03-22T03:33:37.440Z,46.8
2018-03-22T03:34:28.827Z,46.8
2018-03-22T03:35:17.550Z,46.8
2018-03-22T03:36:08.499Z,46.8
2018-03-22T03:36:58.165Z,46.9
2018-03-22T03:37:47.613Z,46.9
2018-03-22T03:38:37.475Z,46.9
2018-03-22T03:39:27.995Z,46.9
2018-03-22T03:40:18.102Z,46.9
2018-03-22T03:41:08.242Z,46.9
2018-03-22T03:41:57.816Z,46.9
2018-03-22T03:42:48.257Z,46.9
2018-03-22T03:43:39.516Z,46.9
2018-03-22T03:44:28.774Z,46.9
2018-03-22T03:45:19.027Z,46.9
2018-03-22T03:46:08.285Z,46.9
2018-03-22T03:46:59.449Z,46.9
2018-03-22T03:47:48.334Z,46.9
2018-03-22T03:48:39.519Z,46.9
2018-03-22T03:49:28.551Z,46.9
2018-03-22T03:50:18.759Z,46.8
2018-03-22T03:51:09.156Z,46.8
2018-03-22T03:51:58.707Z,46.8
2018-03-22T03:52:49.881Z,46.8
2018-03-22T03:53:39.209Z,46.8
2018-03-22T03:54:29.364Z,46.8
2018-03-22T03:55:18.923Z,46.8
2018-03-22T03:56:09.813Z,46.8
2018-03-22T03:56:59.636Z,46.8
2018-03-22T03:57:50.001Z,46.8
2018-03-22T03:58:39.629Z,46.8
2018-03-22T03:59:30.146Z,46.8
2018-03-22T04:00:19.461Z,46.8
2018-03-22T04:01:10.448Z,46.8
2018-03-22T04:01:59.711Z,46.8
2018-03-22T04:02:49.745Z,46.8
2018-03-22T04:03:40.079Z,46.8
2018-03-22T04:04:29.796Z,46.8
2018-03-22T04:05:20.696Z,46.8
2018-03-22T04:06:10.246Z,46.8
2018-03-22T04:06:59.668Z,46.8
2018-03-22T04:07:50.309Z,46.8
2018-03-22T04:08:40.153Z,46.8
2018-03-22T04:09:30.418Z,46.8
2018-03-22T04:10:20.553Z,46.8
2018-03-22T04:11:11.185Z,46.7
2018-03-22T04:12:01.780Z,46.7
2018-03-22T04:12:51.515Z,46.7
2018-03-22T04:13:41.290Z,46.6
2018-03-22T04:14:30.770Z,46.7
2018-03-22T04:15:20.816Z,46.7
2018-03-22T04:16:11.289Z,46.7
2018-03-22T04:17:01.295Z,46.7
2018-03-22T04:17:50.800Z,46.7
2018-03-22T04:18:40.559Z,46.7
2018-03-22T04:19:31.001Z,46.7
2018-03-22T04:20:21.357Z,46.7
2018-03-22T04:21:11.154Z,46.7
2018-03-22T04:22:00.759Z,46.7
2018-03-22T04:22:51.445Z,46.7
2018-03-22T04:23:41.470Z,46.7
2018-03-22T04:24:31.447Z,46.6
2018-03-22T04:25:21.252Z,46.6
2018-03-22T04:26:10.782Z,46.6
2018-03-22T04:27:01.924Z,46.6
2018-03-22T04:27:52.619Z,46.6
2018-03-22T04:28:42.144Z,46.6
2018-03-22T04:29:32.137Z,46.6
2018-03-22T04:30:22.434Z,46.6
2018-03-22T04:31:12.806Z,46.6
2018-03-22T04:32:02.284Z,46.5
2018-03-22T04:32:52.438Z,46.5
2018-03-22T04:33:42.089Z,46.5
2018-03-22T04:34:32.213Z,46.5
2018-03-22T04:35:22.513Z,46.4
2018-03-22T04:36:12.095Z,46.4
2018-03-22T04:37:01.846Z,46.4
2018-03-22T04:37:52.478Z,46.4
2018-03-22T04:38:42.613Z,46.4
2018-03-22T04:39:33.101Z,46.4
2018-03-22T04:40:22.535Z,46.4
2018-03-22T04:41:12.121Z,46.4
2018-03-22T04:42:02.478Z,46.4
2018-03-22T04:42:53.330Z,46.3
2018-03-22T04:43:42.400Z,46.3
2018-03-22T04:44:32.770Z,46.3
2018-03-22T04:45:22.934Z,46.3
2018-03-22T04:46:12.183Z,46.3
2018-03-22T04:47:02.067Z,46.3
2018-03-22T04:47:53.389Z,46.3
2018-03-22T04:48:43.619Z,46.3
2018-03-22T04:49:33.201Z,46.2
2018-03-22T04:50:23.370Z,46.2
2018-03-22T04:51:12.614Z,46.1
2018-03-22T04:52:02.982Z,46.1
2018-03-22T04:52:52.956Z,46.1
2018-03-22T04:53:44.313Z,46.1
2018-03-22T04:54:34.432Z,46.1
2018-03-22T04:55:24.432Z,46.1
2018-03-22T04:56:14.513Z,46
2018-03-22T04:57:04.248Z,46
2018-03-22T04:57:54.914Z,46
2018-03-22T04:58:44.681Z,45.9
2018-03-22T04:59:34.764Z,45.9
2018-03-22T05:00:24.525Z,45.9
2018-03-22T05:01:14.595Z,45.9
2018-03-22T05:02:03.507Z,45.9
2018-03-22T05:02:54.962Z,45.9
2018-03-22T05:03:44.729Z,45.9
2018-03-22T05:04:35.109Z,45.9
2018-03-22T05:05:25.437Z,45.9
2018-03-22T05:06:15.234Z,45.8
2018-03-22T05:07:05.057Z,45.8
2018-03-22T05:07:55.611Z,45.8
2018-03-22T05:08:44.809Z,45.8
2018-03-22T05:09:35.694Z,45.8
2018-03-22T05:10:25.787Z,45.8
2018-03-22T05:11:15.549Z,45.8
2018-03-22T05:12:05.651Z,45.8
2018-03-22T05:12:55.647Z,45.7
2018-03-22T05:13:45.512Z,45.7
2018-03-22T05:14:36.082Z,45.7
2018-03-22T05:15:25.636Z,45.7
2018-03-22T05:16:15.632Z,45.7
2018-03-22T05:17:06.013Z,45.6
2018-03-22T05:17:55.996Z,45.6
2018-03-22T05:18:46.597Z,45.6
2018-03-22T05:19:35.846Z,45.6
2018-03-22T05:20:25.946Z,45.6
2018-03-22T05:21:16.516Z,45.6
2018-03-22T05:22:06.300Z,45.6
2018-03-22T05:22:55.805Z,45.6
2018-03-22T05:23:46.742Z,45.5
2018-03-22T05:24:36.804Z,45.5
2018-03-22T05:25:26.264Z,45.5
2018-03-22T05:26:16.850Z,45.4
2018-03-22T05:27:06.953Z,45.5
2018-03-22T05:27:56.700Z,45.4
2018-03-22T05:28:47.049Z,45.4
2018-03-22T05:29:36.806Z,45.4
2018-03-22T05:30:26.602Z,45.4
2018-03-22T05:31:17.287Z,45.4
2018-03-22T05:32:06.711Z,45.4
2018-03-22T05:32:56.756Z,45.4
2018-03-22T05:33:47.093Z,45.3
2018-03-22T05:34:37.229Z,45.3
2018-03-22T05:35:27.526Z,45.3
2018-03-22T05:36:17.541Z,45.3
2018-03-22T05:37:07.383Z,45.3
2018-03-22T05:37:57.390Z,45.3
2018-03-22T05:38:47.730Z,45.3
2018-03-22T05:39:37.773Z,45.3
2018-03-22T05:40:27.858Z,45.2
2018-03-22T05:41:17.605Z,45.2
2018-03-22T05:42:07.446Z,45.1
2018-03-22T05:42:57.259Z,45.1
2018-03-22T05:43:47.603Z,45.1
2018-03-22T05:44:37.636Z,45.1
2018-03-22T05:45:26.173Z,45
2018-03-22T05:46:17.518Z,44.9
2018-03-22T05:47:06.895Z,44.9
2018-03-22T05:47:57.438Z,44.9
2018-03-22T05:48:47.865Z,44.8
2018-03-22T05:49:37.682Z,44.8
2018-03-22T05:50:27.890Z,44.8
2018-03-22T05:51:17.287Z,44.8
2018-03-22T05:52:07.696Z,44.8
2018-03-22T05:52:57.400Z,44.7
2018-03-22T05:53:47.948Z,44.7
2018-03-22T05:54:37.222Z,44.7
2018-03-22T05:55:27.778Z,44.6
2018-03-22T05:56:17.723Z,44.6
2018-03-22T05:57:08.263Z,44.6
2018-03-22T05:57:58.267Z,44.5
2018-03-22T05:58:48.581Z,44.4
2018-03-22T05:59:38.470Z,44.4
2018-03-22T06:00:28.599Z,44.4
2018-03-22T06:01:19.083Z,44.4
2018-03-22T06:02:08.140Z,44.4
2018-03-22T06:02:58.409Z,44.3
2018-03-22T06:03:48.457Z,44.3
2018-03-22T06:04:38.110Z,44.3
2018-03-22T06:05:28.483Z,44.3
2018-03-22T06:06:18.224Z,44.3
2018-03-22T06:07:07.801Z,44.3
2018-03-22T06:07:58.787Z,44.2
2018-03-22T06:08:49.672Z,44.1
2018-03-22T06:09:38.765Z,44.1
2018-03-22T06:10:28.823Z,44.1
2018-03-22T06:11:19.822Z,44
2018-03-22T06:12:08.446Z,44
2018-03-22T06:12:59.136Z,44
2018-03-22T06:13:48.779Z,43.9
2018-03-22T06:14:39.274Z,43.9
2018-03-22T06:15:28.490Z,43.8
2018-03-22T06:16:19.807Z,43.8
2018-03-22T06:17:09.004Z,43.8
2018-03-22T06:17:59.728Z,43.6
2018-03-22T06:18:49.212Z,43.6
2018-03-22T06:19:39.249Z,43.6
2018-03-22T06:20:29.307Z,43.5
2018-03-22T06:21:20.059Z,43.5
2018-03-22T06:22:09.611Z,43.4
2018-03-22T06:22:59.564Z,43.4
2018-03-22T06:23:50.419Z,43.4
2018-03-22T06:24:39.981Z,43.4
2018-03-22T06:25:29.292Z,43.3
2018-03-22T06:26:20.241Z,43.3
2018-03-22T06:27:08.957Z,43.3
2018-03-22T06:28:00.331Z,43.3
2018-03-22T06:28:50.614Z,43.3
2018-03-22T06:29:39.776Z,43.2
2018-03-22T06:30:28.916Z,43.2
2018-03-22T06:31:20.254Z,43.1
2018-03-22T06:32:10.693Z,43.1
2018-03-22T06:33:00.373Z,43.1
2018-03-22T06:33:49.851Z,43
2018-03-22T06:34:40.688Z,43
2018-03-22T06:35:30.476Z,42.9
2018-03-22T06:36:20.433Z,42.9
2018-03-22T06:37:11.385Z,42.8
2018-03-22T06:38:00.288Z,42.8
2018-03-22T06:38:50.973Z,42.7
2018-03-22T06:39:40.643Z,42.7
2018-03-22T06:40:30.021Z,42.6
2018-03-22T06:41:20.710Z,42.6
2018-03-22T06:42:11.015Z,42.6
2018-03-22T06:43:01.235Z,42.5
2018-03-22T06:43:51.095Z,42.4
2018-03-22T06:44:41.212Z,42.4
2018-03-22T06:45:30.848Z,42.4
2018-03-22T06:46:20.945Z,42.4
2018-03-22T06:47:11.337Z,42.4
2018-03-22T06:48:00.949Z,42.3
2018-03-22T06:48:51.290Z,42.3
2018-03-22T06:49:41.450Z,42.2
2018-03-22T06:50:31.777Z,42.1
2018-03-22T06:51:21.166Z,41.9
2018-03-22T06:52:11.996Z,41.8
2018-03-22T06:53:02.520Z,41.7
2018-03-22T06:53:51.229Z,41.6
2018-03-22T06:54:42.044Z,41.5
2018-03-22T06:55:31.360Z,41.4
2018-03-22T06:56:20.957Z,41.4
2018-03-22T06:57:11.660Z,41.3
2018-03-22T06:58:02.399Z,41.3
2018-03-22T06:58:51.769Z,41.2
2018-03-22T06:59:41.827Z,41.2
2018-03-22T07:00:32.877Z,41.1
2018-03-22T07:01:22.045Z,41
2018-03-22T07:02:12.169Z,40.8
2018-03-22T07:03:03.134Z,40.7
2018-03-22T07:03:53.444Z,40.4
2018-03-22T07:04:42.703Z,40.2
2018-03-22T07:05:32.231Z,40
2018-03-22T07:06:22.692Z,39.8
2018-03-22T07:07:11.638Z,39.8
2018-03-22T07:08:02.713Z,39.6
2018-03-22T07:08:52.681Z,39.5
2018-03-22T07:09:42.900Z,39.4
2018-03-22T07:10:32.804Z,39.4
2018-03-22T07:11:23.310Z,39.3
2018-03-22T07:12:13.393Z,39.2
2018-03-22T07:13:03.373Z,39.1
2018-03-22T07:13:53.231Z,39.1
2018-03-22T07:14:43.558Z,39.1
2018-03-22T07:15:32.820Z,39
2018-03-22T07:16:23.665Z,39
2018-03-22T07:17:13.816Z,38.9
2018-03-22T07:18:03.676Z,38.9
2018-03-22T07:18:53.673Z,38.9
2018-03-22T07:19:44.216Z,38.9
2018-03-22T07:20:33.586Z,38.8
2018-03-22T07:21:24.000Z,38.7
2018-03-22T07:22:13.795Z,38.7
2018-03-22T07:23:04.007Z,38.6
2018-03-22T07:23:53.993Z,38.6
2018-03-22T07:24:44.266Z,38.6
2018-03-22T07:25:33.287Z,38.5
2018-03-22T07:26:23.965Z,38.4
2018-03-22T07:27:14.503Z,38.4
2018-03-22T07:28:04.270Z,38.4
2018-03-22T07:28:53.948Z,38.4
2018-03-22T07:29:44.696Z,38.3
2018-03-22T07:30:34.392Z,38.3
2018-03-22T07:31:24.972Z,38.3
2018-03-22T07:32:14.839Z,38.3
2018-03-22T07:33:04.820Z,38.3
2018-03-22T07:33:55.212Z,38.3
2018-03-22T07:34:44.352Z,38.2
2018-03-22T07:35:35.833Z,38.2
2018-03-22T07:36:25.594Z,38.2
2018-03-22T07:37:15.378Z,38.1
2018-03-22T07:38:05.861Z,38.1
2018-03-22T07:38:55.809Z,38.1
2018-03-22T07:39:45.583Z,38.1
2018-03-22T07:40:35.361Z,38.1
2018-03-22T07:41:24.806Z,38.1
2018-03-22T07:42:15.270Z,38.1
2018-03-22T07:43:04.827Z,38
2018-03-22T07:43:55.200Z,38.1
2018-03-22T07:44:45.517Z,38
2018-03-22T07:45:35.505Z,38
2018-03-22T07:46:26.145Z,38
2018-03-22T07:47:16.203Z,37.9
2018-03-22T07:48:05.578Z,37.9
2018-03-22T07:48:56.315Z,37.9
2018-03-22T07:49:45.765Z,37.9
2018-03-22T07:50:35.768Z,37.9
2018-03-22T07:51:26.714Z,37.8
2018-03-22T07:52:15.945Z,37.8
2018-03-22T07:53:06.794Z,37.8
2018-03-22T07:53:56.262Z,37.8
2018-03-22T07:54:46.881Z,37.8
2018-03-22T07:55:36.347Z,37.7
2018-03-22T07:56:26.545Z,37.7
2018-03-22T07:57:17.384Z,37.7
2018-03-22T07:58:06.339Z,37.6
2018-03-22T07:58:57.046Z,37.6
2018-03-22T07:59:46.995Z,37.6
2018-03-22T08:00:37.049Z,37.6
2018-03-22T08:01:25.035Z,37.6
2018-03-22T08:02:16.059Z,37.6
2018-03-22T08:03:06.308Z,37.6
2018-03-22T08:03:56.959Z,37.5
2018-03-22T08:04:46.752Z,37.5
2018-03-22T08:05:37.462Z,37.5
2018-03-22T08:06:26.654Z,37.5
2018-03-22T08:07:17.190Z,37.5
2018-03-22T08:08:07.172Z,37.4
2018-03-22T08:08:56.898Z,37.4
2018-03-22T08:09:47.964Z,37.4
2018-03-22T08:10:37.000Z,37.4
2018-03-22T08:11:26.786Z,37.4
2018-03-22T08:12:17.824Z,37.4
2018-03-22T08:13:07.097Z,37.4
2018-03-22T08:13:57.172Z,37.4
2018-03-22T08:14:47.397Z,37.4
2018-03-22T08:15:37.072Z,37.3
2018-03-22T08:16:28.080Z,37.3
2018-03-22T08:17:17.314Z,37.3
2018-03-22T08:18:08.515Z,37.3
2018-03-22T08:18:57.585Z,37.3
2018-03-22T08:19:46.936Z,37.3
2018-03-22T08:20:38.308Z,37.3
2018-03-22T08:21:27.642Z,37.3
2018-03-22T08:22:17.730Z,37.3
2018-03-22T08:23:07.517Z,37.2
2018-03-22T08:23:57.925Z,37.2
2018-03-22T08:24:47.886Z,37.2
2018-03-22T08:25:37.411Z,37.2
2018-03-22T08:26:28.375Z,37.2
2018-03-22T08:27:18.377Z,37.1
2018-03-22T08:28:08.499Z,37.1
2018-03-22T08:28:58.856Z,37.1
2018-03-22T08:29:48.265Z,37.1
2018-03-22T08:30:37.412Z,37.1
2018-03-22T08:31:27.955Z,37.1
2018-03-22T08:32:18.214Z,37.1
2018-03-22T08:33:08.497Z,36.9
2018-03-22T08:33:58.873Z,36.8
2018-03-22T08:34:49.680Z,36.6
2018-03-22T08:35:38.584Z,36.6
2018-03-22T08:36:29.253Z,36.4
2018-03-22T08:37:19.332Z,36.3
2018-03-22T08:38:08.508Z,36.3
2018-03-22T08:38:59.242Z,36.2
2018-03-22T08:39:49.013Z,36.2
2018-03-22T08:40:39.262Z,36.1
2018-03-22T08:41:29.727Z,36.1
2018-03-22T08:42:19.412Z,36.1
2018-03-22T08:43:10.507Z,36
2018-03-22T08:43:59.684Z,36
2018-03-22T08:44:49.585Z,35.9
2018-03-22T08:45:39.135Z,35.9
2018-03-22T08:46:30.289Z,35.9
2018-03-22T08:47:19.717Z,35.9
2018-03-22T08:48:09.712Z,35.9
2018-03-22T08:49:00.238Z,35.8
2018-03-22T08:49:50.107Z,35.8
2018-03-22T08:50:40.592Z,35.8
2018-03-22T08:51:30.432Z,35.8
2018-03-22T08:52:20.022Z,35.8
2018-03-22T08:53:09.854Z,35.8
2018-03-22T08:54:00.452Z,35.8
2018-03-22T08:54:51.840Z,35.8
2018-03-22T08:55:41.109Z,35.7
2018-03-22T08:56:31.121Z,35.7
2018-03-22T08:57:20.724Z,35.7
2018-03-22T08:58:10.539Z,35.6
2018-03-22T08:59:00.566Z,35.6
2018-03-22T08:59:50.373Z,35.6
2018-03-22T09:00:40.579Z,35.6
2018-03-22T09:01:30.431Z,35.6
2018-03-22T09:02:20.786Z,35.6
2018-03-22T09:03:10.552Z,35.6
2018-03-22T09:04:00.877Z,35.6
2018-03-22T09:04:51.755Z,35.6
2018-03-22T09:05:40.788Z,35.5
2018-03-22T09:06:31.643Z,35.5
2018-03-22T09:07:20.819Z,35.5
2018-03-22T09:08:11.419Z,35.5
2018-03-22T09:09:02.020Z,35.4
2018-03-22T09:09:51.465Z,35.4
2018-03-22T09:10:41.942Z,35.5
2018-03-22T09:11:31.719Z,35.4
2018-03-22T09:12:20.693Z,35.4
2018-03-22T09:13:11.694Z,35.4
2018-03-22T09:14:02.157Z,35.4
2018-03-22T09:14:51.628Z,35.4
2018-03-22T09:15:41.483Z,35.4
2018-03-22T09:16:31.561Z,35.4
2018-03-22T09:17:22.365Z,35.3
2018-03-22T09:18:12.148Z,35.3
2018-03-22T09:19:02.015Z,35.3
2018-03-22T09:19:52.097Z,35.3
2018-03-22T09:20:41.727Z,35.3
2018-03-22T09:21:31.736Z,35.3
2018-03-22T09:22:21.857Z,35.3
2018-03-22T09:23:12.213Z,35.3
2018-03-22T09:24:02.159Z,35.3
2018-03-22T09:24:52.058Z,35.3
2018-03-22T09:25:42.078Z,35.3
2018-03-22T09:26:32.161Z,35.3
2018-03-22T09:27:22.808Z,35.2
2018-03-22T09:28:12.417Z,35.2
2018-03-22T09:29:03.132Z,35.2
2018-03-22T09:29:52.180Z,35.2
2018-03-22T09:30:43.828Z,35.2
2018-03-22T09:31:32.765Z,35.2
2018-03-22T09:32:22.842Z,35.1
2018-03-22T09:33:12.942Z,35.1
2018-03-22T09:34:03.418Z,35.1
2018-03-22T09:34:53.877Z,35.1
2018-03-22T09:35:43.059Z,35.1
2018-03-22T09:36:32.645Z,35.1
2018-03-22T09:37:22.797Z,35.1
2018-03-22T09:38:14.034Z,35.1
2018-03-22T09:39:03.598Z,35.1
2018-03-22T09:39:53.854Z,35.1
2018-03-22T09:40:42.531Z,35.1
2018-03-22T09:41:33.870Z,35
2018-03-22T09:42:23.440Z,35
2018-03-22T09:43:13.101Z,35
2018-03-22T09:44:03.882Z,34.9
2018-03-22T09:44:53.712Z,34.8
2018-03-22T09:45:43.380Z,34.5
2018-03-22T09:46:33.116Z,34.2
2018-03-22T09:47:23.854Z,33.8
2018-03-22T09:48:13.715Z,33.4
2018-03-22T09:49:04.366Z,32.9
2018-03-22T09:49:54.361Z,32.6
2018-03-22T09:50:44.299Z,32.1
2018-03-22T09:51:33.741Z,31.6
2018-03-22T09:52:24.221Z,31.1
2018-03-22T09:53:14.291Z,30.7
2018-03-22T09:54:03.659Z,30.3
2018-03-22T09:54:54.001Z,30
2018-03-22T09:55:44.875Z,29.7
2018-03-22T09:56:34.311Z,29.5
2018-03-22T09:57:25.652Z,29.3
2018-03-22T09:58:14.543Z,29
2018-03-22T09:59:05.763Z,28.9
2018-03-22T09:59:55.791Z,28.7
2018-03-22T10:00:45.554Z,28.5
2018-03-22T10:01:35.903Z,28.4
2018-03-22T10:02:25.940Z,28.3
2018-03-22T10:03:15.713Z,28.1
2018-03-22T10:04:05.525Z,28
2018-03-22T10:04:55.644Z,27.9
2018-03-22T10:06:36.205Z,27.7
2018-03-22T10:07:26.332Z,27.6
2018-03-22T10:08:16.045Z,27.5
2018-03-22T10:09:05.662Z,27.4
2018-03-22T10:09:55.680Z,27.3
2018-03-22T10:10:45.466Z,27.3
2018-03-22T10:11:36.308Z,27.2
2018-03-22T10:12:26.640Z,27.1
2018-03-22T10:13:16.217Z,27.1
2018-03-22T10:14:05.681Z,27
2018-03-22T10:14:56.052Z,26.9
2018-03-22T10:15:46.385Z,26.9
2018-03-22T10:16:36.416Z,26.8
2018-03-22T10:17:25.844Z,26.8
2018-03-22T10:18:16.808Z,26.6
2018-03-22T10:19:06.534Z,26.5
2018-03-22T10:19:56.367Z,26.4
2018-03-22T10:20:47.210Z,26.3
2018-03-22T10:21:36.460Z,26.1
2018-03-22T10:22:26.823Z,25.9
2018-03-22T10:23:16.879Z,25.8
2018-03-22T10:24:06.061Z,25.5
2018-03-22T10:24:56.951Z,25.3
2018-03-22T10:25:46.527Z,25.1
2018-03-22T10:26:37.327Z,24.9
2018-03-22T10:27:27.141Z,24.8
2018-03-22T10:28:16.873Z,24.6
2018-03-22T10:29:07.219Z,24.5
2018-03-22T10:29:57.854Z,24.4
2018-03-22T10:30:47.141Z,24.3
2018-03-22T10:31:37.471Z,24.2
2018-03-22T10:32:27.997Z,24.1
2018-03-22T10:33:18.118Z,24
2018-03-22T10:34:07.005Z,24
2018-03-22T10:34:57.402Z,23.9
2018-03-22T10:35:47.693Z,23.8
2018-03-22T10:36:36.464Z,23.8
2018-03-22T10:37:26.736Z,23.7
2018-03-22T10:38:18.348Z,23.6
2018-03-22T10:39:07.153Z,23.6
2018-03-22T10:39:56.981Z,23.6
2018-03-22T10:40:47.781Z,23.5
2018-03-22T10:41:37.961Z,23.4
2018-03-22T10:42:28.208Z,23.4
2018-03-22T10:43:18.450Z,23.4
2018-03-22T10:44:07.215Z,23.4
2018-03-22T10:44:58.598Z,23.3
2018-03-22T10:45:47.085Z,23.3
2018-03-22T10:46:37.540Z,23.2
2018-03-22T10:47:27.784Z,23.2
2018-03-22T10:48:18.543Z,23.2
2018-03-22T10:49:08.133Z,23.1
2018-03-22T10:49:57.963Z,23.1
2018-03-22T10:50:47.850Z,23.1
2018-03-22T10:51:37.773Z,23.1
2018-03-22T10:52:29.013Z,23
2018-03-22T10:53:18.588Z,23
2018-03-22T10:54:08.531Z,23
2018-03-22T10:54:58.384Z,22.9
2018-03-22T10:55:49.153Z,22.9
2018-03-22T10:56:38.338Z,22.9
2018-03-22T10:57:27.895Z,22.9
2018-03-22T10:58:18.359Z,22.8
2018-03-22T10:59:09.275Z,22.8
2018-03-22T10:59:58.258Z,22.8
2018-03-22T11:00:48.785Z,22.8
2018-03-22T11:01:38.170Z,22.8
2018-03-22T11:02:28.597Z,22.7
2018-03-22T11:03:19.145Z,22.8
2018-03-22T11:04:09.355Z,22.7
2018-03-22T11:04:58.778Z,22.7
2018-03-22T11:05:49.173Z,22.7
2018-03-22T11:06:39.820Z,22.6
2018-03-22T11:07:29.080Z,22.6
2018-03-22T11:08:19.897Z,22.6
2018-03-22T11:09:09.767Z,22.6